sensor_id;sensor_type;location;lat;lon;timestamp;pressure;altitude;pressure_sealevel;temperature;humidity
35519;BME280;21627;48.216;16.482;2022-08-19T00:00:09;99053.44;;;22.18;66.35
35519;BME280;21627;48.216;16.482;2022-08-19T00:02:41;99026.88;;;22.07;66.75
35519;BME280;21627;48.216;16.482;2022-08-19T00:05:18;99043.44;;;22.09;66.69
35519;BME280;21627;48.216;16.482;2022-08-19T00:07:45;99039.19;;;22.07;67.46
35519;BME280;21627;48.216;16.482;2022-08-19T00:10:14;99042.78;;;22.06;67.49
35519;BME280;21627;48.216;16.482;2022-08-19T00:12:43;99037.28;;;21.94;67.87
35519;BME280;21627;48.216;16.482;2022-08-19T00:15:17;99046.69;;;21.98;68.23
35519;BME280;21627;48.216;16.482;2022-08-19T00:17:45;99046.78;;;21.97;68.53
35519;BME280;21627;48.216;16.482;2022-08-19T00:20:17;99043.47;;;21.93;68.63
35519;BME280;21627;48.216;16.482;2022-08-19T00:22:46;99031.63;;;21.86;69.37
35519;BME280;21627;48.216;16.482;2022-08-19T00:25:15;99025.00;;;21.79;69.65
35519;BME280;21627;48.216;16.482;2022-08-19T00:27:43;99031.03;;;21.81;69.48
35519;BME280;21627;48.216;16.482;2022-08-19T00:30:14;99033.09;;;21.76;69.95
35519;BME280;21627;48.216;16.482;2022-08-19T00:32:41;99026.97;;;21.75;69.89
35519;BME280;21627;48.216;16.482;2022-08-19T00:35:08;99016.91;;;21.68;70.32
35519;BME280;21627;48.216;16.482;2022-08-19T00:37:37;99023.38;;;21.62;70.68
35519;BME280;21627;48.216;16.482;2022-08-19T00:40:06;99025.81;;;21.65;70.78
35519;BME280;21627;48.216;16.482;2022-08-19T00:42:34;99023.44;;;21.60;71.20
35519;BME280;21627;48.216;16.482;2022-08-19T00:45:20;99017.66;;;21.54;71.19
35519;BME280;21627;48.216;16.482;2022-08-19T00:47:48;99025.75;;;21.51;72.13
35519;BME280;21627;48.216;16.482;2022-08-19T00:50:18;99025.75;;;21.51;72.94
35519;BME280;21627;48.216;16.482;2022-08-19T00:52:50;99021.56;;;21.47;74.01
35519;BME280;21627;48.216;16.482;2022-08-19T00:55:26;99019.13;;;21.44;74.83
35519;BME280;21627;48.216;16.482;2022-08-19T00:58:03;99025.22;;;21.44;74.69
35519;BME280;21627;48.216;16.482;2022-08-19T01:00:32;99026.25;;;21.42;75.71
35519;BME280;21627;48.216;16.482;2022-08-19T01:03:11;99016.75;;;21.39;76.70
35519;BME280;21627;48.216;16.482;2022-08-19T01:05:42;99024.88;;;21.34;77.35
35519;BME280;21627;48.216;16.482;2022-08-19T01:08:11;99018.03;;;21.32;78.31
35519;BME280;21627;48.216;16.482;2022-08-19T01:10:58;99008.25;;;21.34;79.72
35519;BME280;21627;48.216;16.482;2022-08-19T01:13:30;99003.50;;;21.25;80.90
35519;BME280;21627;48.216;16.482;2022-08-19T01:16:17;99018.94;;;21.31;81.81
35519;BME280;21627;48.216;16.482;2022-08-19T01:18:46;99021.66;;;21.29;83.25
35519;BME280;21627;48.216;16.482;2022-08-19T01:21:24;99029.63;;;21.28;83.87
35519;BME280;21627;48.216;16.482;2022-08-19T01:23:53;99039.31;;;21.27;83.97
35519;BME280;21627;48.216;16.482;2022-08-19T01:26:23;99026.59;;;21.20;84.15
35519;BME280;21627;48.216;16.482;2022-08-19T01:28:55;99041.34;;;21.22;84.96
35519;BME280;21627;48.216;16.482;2022-08-19T01:31:29;99034.47;;;21.20;85.60
35519;BME280;21627;48.216;16.482;2022-08-19T01:34:00;99039.13;;;21.14;85.64
35519;BME280;21627;48.216;16.482;2022-08-19T01:36:35;99038.03;;;21.18;86.28
35519;BME280;21627;48.216;16.482;2022-08-19T01:39:07;99048.72;;;21.15;86.92
35519;BME280;21627;48.216;16.482;2022-08-19T01:41:36;99045.66;;;21.07;87.22
35519;BME280;21627;48.216;16.482;2022-08-19T01:44:05;99058.56;;;21.12;87.50
35519;BME280;21627;48.216;16.482;2022-08-19T01:46:47;99055.06;;;21.11;88.21
35519;BME280;21627;48.216;16.482;2022-08-19T01:49:18;99044.22;;;21.02;88.68
35519;BME280;21627;48.216;16.482;2022-08-19T01:51:47;99045.66;;;21.07;89.13
35519;BME280;21627;48.216;16.482;2022-08-19T01:54:17;99035.22;;;21.06;89.34
35519;BME280;21627;48.216;16.482;2022-08-19T01:57:03;99032.94;;;21.00;89.79
35519;BME280;21627;48.216;16.482;2022-08-19T01:59:32;99032.22;;;20.96;90.17
35519;BME280;21627;48.216;16.482;2022-08-19T02:01:59;99035.22;;;20.90;90.20
35519;BME280;21627;48.216;16.482;2022-08-19T02:04:27;99053.44;;;20.93;91.08
35519;BME280;21627;48.216;16.482;2022-08-19T02:06:54;99058.75;;;20.91;91.29
35519;BME280;21627;48.216;16.482;2022-08-19T02:09:21;99072.84;;;20.90;91.91
35519;BME280;21627;48.216;16.482;2022-08-19T02:11:48;99072.84;;;20.90;93.00
35519;BME280;21627;48.216;16.482;2022-08-19T02:14:15;99066.03;;;20.86;92.60
35519;BME280;21627;48.216;16.482;2022-08-19T02:16:42;99072.66;;;20.93;92.68
35519;BME280;21627;48.216;16.482;2022-08-19T02:19:10;99078.03;;;20.92;92.71
35519;BME280;21627;48.216;16.482;2022-08-19T02:21:37;99078.09;;;20.90;92.46
35519;BME280;21627;48.216;16.482;2022-08-19T02:24:04;99062.16;;;20.93;91.34
35519;BME280;21627;48.216;16.482;2022-08-19T02:26:35;99059.63;;;20.92;90.94
35519;BME280;21627;48.216;16.482;2022-08-19T02:29:03;99062.09;;;20.95;89.65
35519;BME280;21627;48.216;16.482;2022-08-19T02:31:30;99055.88;;;20.96;87.20
35519;BME280;21627;48.216;16.482;2022-08-19T02:33:57;99055.13;;;20.94;87.80
35519;BME280;21627;48.216;16.482;2022-08-19T02:36:25;99076.00;;;20.97;87.50
35519;BME280;21627;48.216;16.482;2022-08-19T02:38:54;99103.72;;;21.03;87.11
35519;BME280;21627;48.216;16.482;2022-08-19T02:41:31;99102.34;;;20.95;86.99
35519;BME280;21627;48.216;16.482;2022-08-19T02:44:01;99125.59;;;21.03;87.42
35519;BME280;21627;48.216;16.482;2022-08-19T02:46:48;99111.78;;;21.00;87.86
35519;BME280;21627;48.216;16.482;2022-08-19T02:49:19;99114.47;;;20.98;88.30
35519;BME280;21627;48.216;16.482;2022-08-19T02:51:46;99118.97;;;20.96;88.33
35519;BME280;21627;48.216;16.482;2022-08-19T02:54:15;99107.84;;;20.91;88.62
35519;BME280;21627;48.216;16.482;2022-08-19T02:56:44;99111.41;;;20.90;89.04
35519;BME280;21627;48.216;16.482;2022-08-19T02:59:11;99094.88;;;20.88;89.58
35519;BME280;21627;48.216;16.482;2022-08-19T03:01:41;99104.84;;;20.81;90.01
35519;BME280;21627;48.216;16.482;2022-08-19T03:04:12;99116.91;;;20.85;90.91
35519;BME280;21627;48.216;16.482;2022-08-19T03:06:42;99107.56;;;20.80;91.73
35519;BME280;21627;48.216;16.482;2022-08-19T03:09:13;99104.09;;;20.79;91.86
35519;BME280;21627;48.216;16.482;2022-08-19T03:11:43;99112.06;;;20.78;92.55
35519;BME280;21627;48.216;16.482;2022-08-19T03:14:11;99107.03;;;20.73;92.86
35519;BME280;21627;48.216;16.482;2022-08-19T03:16:57;99115.00;;;20.71;92.74
35519;BME280;21627;48.216;16.482;2022-08-19T03:19:24;99099.66;;;20.64;92.83
35519;BME280;21627;48.216;16.482;2022-08-19T03:21:52;99114.25;;;20.69;93.39
35519;BME280;21627;48.216;16.482;2022-08-19T03:24:20;99117.88;;;20.67;93.25
35519;BME280;21627;48.216;16.482;2022-08-19T03:26:54;99110.16;;;20.64;93.66
35519;BME280;21627;48.216;16.482;2022-08-19T03:29:27;99116.56;;;20.58;94.36
35519;BME280;21627;48.216;16.482;2022-08-19T03:32:02;99120.03;;;20.59;94.31
35519;BME280;21627;48.216;16.482;2022-08-19T03:34:33;99104.44;;;20.56;95.12
35519;BME280;21627;48.216;16.482;2022-08-19T03:37:09;99128.06;;;20.56;95.12
35519;BME280;21627;48.216;16.482;2022-08-19T03:39:40;99124.97;;;20.47;95.20
35519;BME280;21627;48.216;16.482;2022-08-19T03:42:09;99133.69;;;20.48;95.65
35519;BME280;21627;48.216;16.482;2022-08-19T03:44:56;99136.91;;;20.53;95.63
35519;BME280;21627;48.216;16.482;2022-08-19T03:47:25;99148.25;;;20.53;95.78
35519;BME280;21627;48.216;16.482;2022-08-19T03:49:52;99136.53;;;20.43;96.01
35519;BME280;21627;48.216;16.482;2022-08-19T03:52:19;99154.69;;;20.48;96.58
35519;BME280;21627;48.216;16.482;2022-08-19T03:54:47;99145.28;;;20.44;96.82
35519;BME280;21627;48.216;16.482;2022-08-19T03:57:14;99145.34;;;20.42;96.96
35519;BME280;21627;48.216;16.482;2022-08-19T03:59:41;99139.47;;;20.37;96.80
35519;BME280;21627;48.216;16.482;2022-08-19T04:02:12;99147.97;;;20.42;96.87
35519;BME280;21627;48.216;16.482;2022-08-19T04:04:42;99151.44;;;20.43;97.23
35519;BME280;21627;48.216;16.482;2022-08-19T04:07:11;99143.25;;;20.31;98.53
35519;BME280;21627;48.216;16.482;2022-08-19T04:09:42;99163.03;;;20.39;99.42
35519;BME280;21627;48.216;16.482;2022-08-19T04:12:09;99149.13;;;20.37;100.00
35519;BME280;21627;48.216;16.482;2022-08-19T04:14:36;99152.59;;;20.37;100.00
35519;BME280;21627;48.216;16.482;2022-08-19T04:17:04;99153.44;;;20.38;100.00
35519;BME280;21627;48.216;16.482;2022-08-19T04:19:34;99138.91;;;20.30;100.00
35519;BME280;21627;48.216;16.482;2022-08-19T04:22:02;99159.63;;;20.37;100.00
35519;BME280;21627;48.216;16.482;2022-08-19T04:24:35;99161.41;;;20.36;100.00
35519;BME280;21627;48.216;16.482;2022-08-19T04:27:03;99152.03;;;20.30;100.00
35519;BME280;21627;48.216;16.482;2022-08-19T04:29:31;99158.78;;;20.36;100.00
35519;BME280;21627;48.216;16.482;2022-08-19T04:31:58;99163.88;;;20.39;100.00
35519;BME280;21627;48.216;16.482;2022-08-19T04:34:34;99150.03;;;20.36;100.00
35519;BME280;21627;48.216;16.482;2022-08-19T04:37:05;99149.59;;;20.45;100.00
35519;BME280;21627;48.216;16.482;2022-08-19T04:39:41;99147.13;;;20.42;100.00
35519;BME280;21627;48.216;16.482;2022-08-19T04:42:31;99145.19;;;20.45;100.00
35519;BME280;21627;48.216;16.482;2022-08-19T04:45:12;99161.19;;;20.58;100.00
35519;BME280;21627;48.216;16.482;2022-08-19T04:47:44;99165.44;;;20.61;100.00
35519;BME280;21627;48.216;16.482;2022-08-19T04:50:27;99161.19;;;20.58;100.00
35519;BME280;21627;48.216;16.482;2022-08-19T04:52:55;99180.81;;;20.68;100.00
35519;BME280;21627;48.216;16.482;2022-08-19T04:55:22;99173.94;;;20.66;100.00
35519;BME280;21627;48.216;16.482;2022-08-19T04:57:54;99189.09;;;20.78;100.00
35519;BME280;21627;48.216;16.482;2022-08-19T05:00:21;99172.72;;;20.73;100.00
35519;BME280;21627;48.216;16.482;2022-08-19T05:02:48;99186.16;;;20.84;100.00
35519;BME280;21627;48.216;16.482;2022-08-19T05:05:16;99180.66;;;20.89;100.00
35519;BME280;21627;48.216;16.482;2022-08-19T05:07:44;99170.13;;;20.89;100.00
35519;BME280;21627;48.216;16.482;2022-08-19T05:10:11;99164.75;;;20.92;100.00
35519;BME280;21627;48.216;16.482;2022-08-19T05:12:39;99184.28;;;21.04;100.00
35519;BME280;21627;48.216;16.482;2022-08-19T05:15:07;99196.25;;;21.09;100.00
35519;BME280;21627;48.216;16.482;2022-08-19T05:17:38;99198.63;;;21.14;100.00
35519;BME280;21627;48.216;16.482;2022-08-19T05:20:25;99192.28;;;21.18;100.00
35519;BME280;21627;48.216;16.482;2022-08-19T05:23:28;99178.47;;;21.14;100.00
35519;BME280;21627;48.216;16.482;2022-08-19T05:25:58;99205.03;;;21.26;100.00
35519;BME280;21627;48.216;16.482;2022-08-19T05:28:25;99212.50;;;21.33;98.05
35519;BME280;21627;48.216;16.482;2022-08-19T05:30:53;99225.06;;;21.46;96.94
35519;BME280;21627;48.216;16.482;2022-08-19T05:33:25;99221.81;;;21.41;96.13
35519;BME280;21627;48.216;16.482;2022-08-19T05:35:52;99235.34;;;21.50;95.94
35519;BME280;21627;48.216;16.482;2022-08-19T05:38:19;99234.31;;;21.53;95.88
35519;BME280;21627;48.216;16.482;2022-08-19T05:40:47;99233.47;;;21.52;96.59
35519;BME280;21627;48.216;16.482;2022-08-19T05:43:16;99232.97;;;21.61;96.73
35519;BME280;21627;48.216;16.482;2022-08-19T05:45:45;99246.03;;;21.63;97.00
35519;BME280;21627;48.216;16.482;2022-08-19T05:48:13;99269.31;;;21.71;95.97
35519;BME280;21627;48.216;16.482;2022-08-19T05:50:41;99284.03;;;21.75;94.23
35519;BME280;21627;48.216;16.482;2022-08-19T05:53:09;99285.22;;;21.85;93.55
35519;BME280;21627;48.216;16.482;2022-08-19T05:55:36;99281.47;;;21.89;92.37
35519;BME280;21627;48.216;16.482;2022-08-19T05:58:05;99297.56;;;22.00;90.37
35519;BME280;21627;48.216;16.482;2022-08-19T06:00:36;99282.53;;;22.02;90.43
35519;BME280;21627;48.216;16.482;2022-08-19T06:03:04;99299.59;;;22.11;88.66
35519;BME280;21627;48.216;16.482;2022-08-19T06:05:38;99306.84;;;22.23;87.71
35519;BME280;21627;48.216;16.482;2022-08-19T06:08:21;99318.75;;;22.31;87.83
35519;BME280;21627;48.216;16.482;2022-08-19T06:11:21;99306.41;;;22.47;84.82
35519;BME280;21627;48.216;16.482;2022-08-19T06:13:51;99311.44;;;22.52;84.58
35519;BME280;21627;48.216;16.482;2022-08-19T06:16:26;99298.78;;;22.58;84.75
35519;BME280;21627;48.216;16.482;2022-08-19T06:18:59;99306.56;;;22.60;85.46
35519;BME280;21627;48.216;16.482;2022-08-19T06:21:29;99313.69;;;22.74;83.86
35519;BME280;21627;48.216;16.482;2022-08-19T06:23:59;99312.09;;;22.71;83.42
35519;BME280;21627;48.216;16.482;2022-08-19T06:26:27;99308.56;;;22.86;81.82
35519;BME280;21627;48.216;16.482;2022-08-19T06:28:57;99308.97;;;22.95;82.04
35519;BME280;21627;48.216;16.482;2022-08-19T06:31:29;99305.75;;;22.89;83.53
35519;BME280;21627;48.216;16.482;2022-08-19T06:34:03;99311.78;;;22.92;82.28
35519;BME280;21627;48.216;16.482;2022-08-19T06:36:38;99306.53;;;22.92;82.52
35519;BME280;21627;48.216;16.482;2022-08-19T06:39:15;99311.72;;;22.93;83.42
35519;BME280;21627;48.216;16.482;2022-08-19T06:41:48;99308.97;;;22.95;83.13
35519;BME280;21627;48.216;16.482;2022-08-19T06:44:23;99297.34;;;22.99;82.94
35519;BME280;21627;48.216;16.482;2022-08-19T06:46:52;99307.53;;;23.05;81.71
35519;BME280;21627;48.216;16.482;2022-08-19T06:49:22;99279.66;;;23.01;82.39
35519;BME280;21627;48.216;16.482;2022-08-19T06:51:52;99292.84;;;23.15;80.82
35519;BME280;21627;48.216;16.482;2022-08-19T06:54:20;99280.13;;;23.07;80.84
35519;BME280;21627;48.216;16.482;2022-08-19T06:56:49;99295.88;;;23.23;80.66
35519;BME280;21627;48.216;16.482;2022-08-19T06:59:24;99302.94;;;23.23;80.48
35519;BME280;21627;48.216;16.482;2022-08-19T07:01:56;99288.91;;;23.22;81.44
35519;BME280;21627;48.216;16.482;2022-08-19T07:04:28;99281.88;;;23.37;79.45
35519;BME280;21627;48.216;16.482;2022-08-19T07:07:11;99277.25;;;23.41;78.80
35519;BME280;21627;48.216;16.482;2022-08-19T07:09:49;99281.50;;;23.43;80.81
35519;BME280;21627;48.216;16.482;2022-08-19T07:12:31;99285.56;;;23.49;78.26
35519;BME280;21627;48.216;16.482;2022-08-19T07:15:05;99299.16;;;23.57;78.46
35519;BME280;21627;48.216;16.482;2022-08-19T07:17:35;99301.59;;;23.60;79.21
35519;BME280;21627;48.216;16.482;2022-08-19T07:20:09;99293.47;;;23.63;78.11
35519;BME280;21627;48.216;16.482;2022-08-19T07:22:38;99282.88;;;23.79;76.67
35519;BME280;21627;48.216;16.482;2022-08-19T07:25:09;99278.44;;;23.80;76.06
35519;BME280;21627;48.216;16.482;2022-08-19T07:27:36;99263.91;;;23.72;76.29
35519;BME280;21627;48.216;16.482;2022-08-19T07:30:08;99268.91;;;23.77;77.95
35519;BME280;21627;48.216;16.482;2022-08-19T07:32:38;99256.47;;;23.79;79.45
35519;BME280;21627;48.216;16.482;2022-08-19T07:35:07;99254.28;;;23.86;81.02
35519;BME280;21627;48.216;16.482;2022-08-19T07:37:36;99258.06;;;23.82;78.12
35519;BME280;21627;48.216;16.482;2022-08-19T07:40:06;99257.88;;;23.85;78.42
35519;BME280;21627;48.216;16.482;2022-08-19T07:42:34;99235.53;;;23.76;79.52
35519;BME280;21627;48.216;16.482;2022-08-19T07:45:01;99251.91;;;23.81;80.19
35519;BME280;21627;48.216;16.482;2022-08-19T07:47:29;99254.84;;;23.91;80.85
35519;BME280;21627;48.216;16.482;2022-08-19T07:50:18;99229.31;;;23.91;82.19
35519;BME280;21627;48.216;16.482;2022-08-19T07:52:48;99210.91;;;23.90;81.26
35519;BME280;21627;48.216;16.482;2022-08-19T07:55:23;99229.03;;;24.09;81.17
35519;BME280;21627;48.216;16.482;2022-08-19T07:58:15;99223.59;;;24.12;79.32
35519;BME280;21627;48.216;16.482;2022-08-19T08:00:46;99227.88;;;24.27;78.63
35519;BME280;21627;48.216;16.482;2022-08-19T08:03:16;99216.13;;;24.31;79.28
35519;BME280;21627;48.216;16.482;2022-08-19T08:05:44;99216.31;;;24.43;76.83
35519;BME280;21627;48.216;16.482;2022-08-19T08:08:36;99224.84;;;24.60;76.37
35519;BME280;21627;48.216;16.482;2022-08-19T08:11:24;99227.59;;;24.72;75.18
35519;BME280;21627;48.216;16.482;2022-08-19T08:13:55;99233.25;;;24.80;74.76
35519;BME280;21627;48.216;16.482;2022-08-19T08:16:28;99231.22;;;24.83;73.81
35519;BME280;21627;48.216;16.482;2022-08-19T08:18:58;99248.84;;;24.97;71.07
35519;BME280;21627;48.216;16.482;2022-08-19T08:21:27;99249.91;;;25.08;73.80
35519;BME280;21627;48.216;16.482;2022-08-19T08:23:54;99246.91;;;25.12;72.09
35519;BME280;21627;48.216;16.482;2022-08-19T08:26:26;99244.00;;;25.17;72.18
35519;BME280;21627;48.216;16.482;2022-08-19T08:28:54;99259.66;;;25.20;73.05
35519;BME280;21627;48.216;16.482;2022-08-19T08:31:21;99253.63;;;25.18;72.63
35519;BME280;21627;48.216;16.482;2022-08-19T08:33:49;99264.00;;;25.21;72.49
35519;BME280;21627;48.216;16.482;2022-08-19T08:36:16;99268.69;;;25.30;69.78
35519;BME280;21627;48.216;16.482;2022-08-19T08:38:44;99268.69;;;25.30;69.99
35519;BME280;21627;48.216;16.482;2022-08-19T08:43:51;99281.38;;;25.51;68.93
35519;BME280;21627;48.216;16.482;2022-08-19T08:47:03;99283.50;;;25.58;68.29
35519;BME280;21627;48.216;16.482;2022-08-19T08:49:46;99303.91;;;25.69;64.99
35519;BME280;21627;48.216;16.482;2022-08-19T08:52:43;99308.47;;;25.80;62.97
35519;BME280;21627;48.216;16.482;2022-08-19T08:55:16;99315.16;;;25.98;62.08
35519;BME280;21627;48.216;16.482;2022-08-19T09:00:27;99314.16;;;26.12;62.69
35519;BME280;21627;48.216;16.482;2022-08-19T09:03:00;99303.97;;;26.19;65.25
35519;BME280;21627;48.216;16.482;2022-08-19T09:06:14;99309.25;;;26.31;64.51
35519;BME280;21627;48.216;16.482;2022-08-19T09:09:04;99289.91;;;26.42;64.34
35519;BME280;21627;48.216;16.482;2022-08-19T09:14:43;99275.09;;;26.64;62.20
35519;BME280;21627;48.216;16.482;2022-08-19T09:17:21;99271.25;;;26.68;61.01
35519;BME280;21627;48.216;16.482;2022-08-19T09:20:18;99272.16;;;26.80;60.05
35519;BME280;21627;48.216;16.482;2022-08-19T09:22:46;99258.19;;;26.89;59.59
35519;BME280;21627;48.216;16.482;2022-08-19T09:25:19;99254.81;;;26.98;59.80
35519;BME280;21627;48.216;16.482;2022-08-19T09:27:55;99247.59;;;27.00;57.33
35519;BME280;21627;48.216;16.482;2022-08-19T09:30:42;99251.59;;;27.06;57.30
35519;BME280;21627;48.216;16.482;2022-08-19T09:33:12;99264.78;;;27.18;55.18
35519;BME280;21627;48.216;16.482;2022-08-19T09:35:39;99250.91;;;27.15;56.23
35519;BME280;21627;48.216;16.482;2022-08-19T09:38:21;99241.63;;;27.21;55.94
35519;BME280;21627;48.216;16.482;2022-08-19T09:40:48;99232.00;;;27.31;55.52
35519;BME280;21627;48.216;16.482;2022-08-19T09:43:17;99222.13;;;27.33;55.12
35519;BME280;21627;48.216;16.482;2022-08-19T09:46:00;99221.00;;;27.47;55.08
35519;BME280;21627;48.216;16.482;2022-08-19T09:48:28;99224.19;;;27.52;53.68
35519;BME280;21627;48.216;16.482;2022-08-19T09:51:06;99219.81;;;27.51;57.58
35519;BME280;21627;48.216;16.482;2022-08-19T09:53:43;99240.34;;;27.60;54.63
35519;BME280;21627;48.216;16.482;2022-08-19T09:56:11;99225.25;;;27.60;54.70
35519;BME280;21627;48.216;16.482;2022-08-19T09:58:40;99235.75;;;27.73;53.08
35519;BME280;21627;48.216;16.482;2022-08-19T10:01:08;99242.25;;;27.80;52.33
35519;BME280;21627;48.216;16.482;2022-08-19T10:03:36;99237.34;;;27.87;53.50
35519;BME280;21627;48.216;16.482;2022-08-19T10:06:05;99237.06;;;28.01;52.71
35519;BME280;21627;48.216;16.482;2022-08-19T10:08:43;99238.25;;;28.20;51.69
35519;BME280;21627;48.216;16.482;2022-08-19T10:11:17;99234.81;;;28.40;51.37
35519;BME280;21627;48.216;16.482;2022-08-19T10:14:01;99230.56;;;28.49;50.91
35519;BME280;21627;48.216;16.482;2022-08-19T10:16:29;99241.09;;;28.51;51.35
35519;BME280;21627;48.216;16.482;2022-08-19T10:18:56;99237.81;;;28.47;51.48
35519;BME280;21627;48.216;16.482;2022-08-19T10:21:31;99239.38;;;28.50;52.38
35519;BME280;21627;48.216;16.482;2022-08-19T10:24:03;99230.19;;;28.42;52.12
35519;BME280;21627;48.216;16.482;2022-08-19T10:26:36;99240.69;;;28.44;51.25
35519;BME280;21627;48.216;16.482;2022-08-19T10:29:05;99242.91;;;28.50;52.12
35519;BME280;21627;48.216;16.482;2022-08-19T10:31:35;99254.00;;;28.44;51.20
35519;BME280;21627;48.216;16.482;2022-08-19T10:34:24;99254.50;;;28.38;52.94
35519;BME280;21627;48.216;16.482;2022-08-19T10:36:55;99251.50;;;28.31;48.90
35519;BME280;21627;48.216;16.482;2022-08-19T10:39:30;99267.34;;;28.21;51.74
35519;BME280;21627;48.216;16.482;2022-08-19T10:42:09;99282.72;;;28.18;51.51
35519;BME280;21627;48.216;16.482;2022-08-19T10:44:41;99280.91;;;28.18;48.22
35519;BME280;21627;48.216;16.482;2022-08-19T10:47:09;99291.91;;;28.25;48.26
35519;BME280;21627;48.216;16.482;2022-08-19T10:49:54;99274.38;;;28.22;49.49
35519;BME280;21627;48.216;16.482;2022-08-19T10:52:43;99278.44;;;28.38;48.20
35519;BME280;21627;48.216;16.482;2022-08-19T10:55:22;99278.09;;;28.31;49.96
35519;BME280;21627;48.216;16.482;2022-08-19T10:58:18;99259.75;;;28.17;51.78
35519;BME280;21627;48.216;16.482;2022-08-19T11:00:58;99271.63;;;28.13;50.13
35519;BME280;21627;48.216;16.482;2022-08-19T11:03:26;99292.41;;;28.08;51.74
35519;BME280;21627;48.216;16.482;2022-08-19T11:06:06;99301.22;;;27.97;50.71
35519;BME280;21627;48.216;16.482;2022-08-19T11:08:35;99317.16;;;27.97;50.04
35519;BME280;21627;48.216;16.482;2022-08-19T11:11:06;99289.88;;;27.83;51.54
35519;BME280;21627;48.216;16.482;2022-08-19T11:13:37;99291.53;;;27.73;58.19
35519;BME280;21627;48.216;16.482;2022-08-19T11:16:25;99291.28;;;27.43;69.70
35519;BME280;21627;48.216;16.482;2022-08-19T11:18:55;99301.59;;;26.88;71.38
35519;BME280;21627;48.216;16.482;2022-08-19T11:21:33;99283.81;;;26.29;71.73
35519;BME280;21627;48.216;16.482;2022-08-19T11:24:05;99266.22;;;25.91;67.42
35519;BME280;21627;48.216;16.482;2022-08-19T11:26:34;99281.56;;;25.73;70.58
35519;BME280;21627;48.216;16.482;2022-08-19T11:29:02;99275.25;;;25.63;76.97
35519;BME280;21627;48.216;16.482;2022-08-19T11:31:35;99266.09;;;25.67;79.99
35519;BME280;21627;48.216;16.482;2022-08-19T11:34:05;99244.06;;;25.79;81.50
35519;BME280;21627;48.216;16.482;2022-08-19T11:36:34;99231.78;;;25.78;83.72
35519;BME280;21627;48.216;16.482;2022-08-19T11:39:06;99243.72;;;25.97;81.20
35519;BME280;21627;48.216;16.482;2022-08-19T11:41:34;99242.72;;;26.10;79.13
35519;BME280;21627;48.216;16.482;2022-08-19T11:44:02;99223.28;;;26.23;74.46
35519;BME280;21627;48.216;16.482;2022-08-19T11:46:30;99208.00;;;26.26;74.66
35519;BME280;21627;48.216;16.482;2022-08-19T11:48:59;99229.31;;;26.49;81.30
35519;BME280;21627;48.216;16.482;2022-08-19T11:51:31;99217.53;;;26.53;84.50
35519;BME280;21627;48.216;16.482;2022-08-19T11:53:59;99213.63;;;26.70;80.69
35519;BME280;21627;48.216;16.482;2022-08-19T11:56:30;99217.53;;;26.88;76.17
35519;BME280;21627;48.216;16.482;2022-08-19T11:59:01;99224.31;;;27.04;72.80
35519;BME280;21627;48.216;16.482;2022-08-19T12:01:28;99231.47;;;27.14;72.22
35519;BME280;21627;48.216;16.482;2022-08-19T12:03:59;99230.06;;;27.22;71.42
35519;BME280;21627;48.216;16.482;2022-08-19T12:06:32;99210.16;;;27.27;72.42
35519;BME280;21627;48.216;16.482;2022-08-19T12:09:06;99205.47;;;27.19;71.64
35519;BME280;21627;48.216;16.482;2022-08-19T12:11:39;99217.13;;;27.17;70.91
35519;BME280;21627;48.216;16.482;2022-08-19T12:14:12;99215.09;;;27.21;71.74
35519;BME280;21627;48.216;16.482;2022-08-19T12:16:45;99216.25;;;27.16;72.34
35519;BME280;21627;48.216;16.482;2022-08-19T12:19:20;99221.94;;;27.12;70.88
35519;BME280;21627;48.216;16.482;2022-08-19T12:21:49;99218.22;;;27.14;69.75
35519;BME280;21627;48.216;16.482;2022-08-19T12:24:17;99218.47;;;27.23;67.17
35519;BME280;21627;48.216;16.482;2022-08-19T12:26:51;99227.91;;;27.49;68.26
35519;BME280;21627;48.216;16.482;2022-08-19T12:29:21;99228.75;;;27.72;59.88
35519;BME280;21627;48.216;16.482;2022-08-19T12:31:50;99233.34;;;27.70;63.17
35519;BME280;21627;48.216;16.482;2022-08-19T12:34:18;99244.31;;;27.77;62.05
35519;BME280;21627;48.216;16.482;2022-08-19T12:36:46;99251.59;;;27.86;61.62
35519;BME280;21627;48.216;16.482;2022-08-19T12:39:16;99241.53;;;27.78;59.23
35519;BME280;21627;48.216;16.482;2022-08-19T12:41:43;99258.56;;;27.76;61.42
35519;BME280;21627;48.216;16.482;2022-08-19T12:44:22;99260.50;;;27.74;60.74
35519;BME280;21627;48.216;16.482;2022-08-19T12:46:56;99252.06;;;27.57;60.63
35519;BME280;21627;48.216;16.482;2022-08-19T12:49:23;99269.09;;;27.55;60.89
35519;BME280;21627;48.216;16.482;2022-08-19T12:52:12;99274.00;;;27.48;59.90
35519;BME280;21627;48.216;16.482;2022-08-19T12:54:44;99274.97;;;27.36;64.17
35519;BME280;21627;48.216;16.482;2022-08-19T12:57:11;99262.66;;;27.35;62.70
35519;BME280;21627;48.216;16.482;2022-08-19T12:59:39;99265.06;;;27.38;65.43
35519;BME280;21627;48.216;16.482;2022-08-19T13:02:07;99258.09;;;27.37;65.72
35519;BME280;21627;48.216;16.482;2022-08-19T13:04:35;99267.00;;;27.36;65.67
35519;BME280;21627;48.216;16.482;2022-08-19T13:07:04;99264.97;;;27.39;64.46
35519;BME280;21627;48.216;16.482;2022-08-19T13:09:32;99258.09;;;27.37;63.84
35519;BME280;21627;48.216;16.482;2022-08-19T13:11:59;99253.88;;;27.34;64.94
35519;BME280;21627;48.216;16.482;2022-08-19T13:14:29;99242.50;;;27.32;65.23
35519;BME280;21627;48.216;16.482;2022-08-19T13:17:02;99227.91;;;27.27;64.83
35519;BME280;21627;48.216;16.482;2022-08-19T13:19:29;99225.84;;;27.19;64.21
35519;BME280;21627;48.216;16.482;2022-08-19T13:22:01;99224.03;;;27.19;62.96
35519;BME280;21627;48.216;16.482;2022-08-19T13:24:31;99229.44;;;27.18;63.60